sensor_id;sensor_type;location;lat;lon;timestamp;P1;durP1;ratioP1;P2;durP2;ratioP2
18796;SDS011;9526;52.612;13.300;2023-04-16T00:00:32;50.10;;;29.25;;
18796;SDS011;9526;52.612;13.300;2023-04-16T00:02:55;53.33;;;29.10;;
18796;SDS011;9526;52.612;13.300;2023-04-16T00:05:20;56.47;;;29.70;;
18796;SDS011;9526;52.612;13.300;2023-04-16T00:07:44;52.58;;;29.52;;
18796;SDS011;9526;52.612;13.300;2023-04-16T00:10:09;49.35;;;29.05;;
18796;SDS011;9526;52.612;13.300;2023-04-16T00:12:33;50.13;;;28.98;;
18796;SDS011;9526;52.612;13.300;2023-04-16T00:14:56;49.20;;;28.38;;
18796;SDS011;9526;52.612;13.300;2023-04-16T00:17:20;51.40;;;27.67;;
18796;SDS011;9526;52.612;13.300;2023-04-16T00:19:44;50.65;;;28.85;;
18796;SDS011;9526;52.612;13.300;2023-04-16T00:22:07;52.15;;;29.35;;
18796;SDS011;9526;52.612;13.300;2023-04-16T00:24:31;46.15;;;26.58;;
18796;SDS011;9526;52.612;13.300;2023-04-16T00:26:56;49.50;;;26.88;;
18796;SDS011;9526;52.612;13.300;2023-04-16T00:29:20;49.03;;;28.27;;
18796;SDS011;9526;52.612;13.300;2023-04-16T00:31:43;54.53;;;29.13;;
18796;SDS011;9526;52.612;13.300;2023-04-16T00:34:07;49.47;;;28.33;;
18796;SDS011;9526;52.612;13.300;2023-04-16T00:36:31;51.25;;;27.95;;
18796;SDS011;9526;52.612;13.300;2023-04-16T00:38:55;52.65;;;29.25;;
18796;SDS011;9526;52.612;13.300;2023-04-16T00:41:19;55.42;;;29.35;;
18796;SDS011;9526;52.612;13.300;2023-04-16T00:43:45;57.83;;;29.33;;
18796;SDS011;9526;52.612;13.300;2023-04-16T00:46:08;47.28;;;28.27;;
18796;SDS011;9526;52.612;13.300;2023-04-16T00:48:32;52.63;;;29.08;;
18796;SDS011;9526;52.612;13.300;2023-04-16T00:50:57;51.83;;;28.08;;
18796;SDS011;9526;52.612;13.300;2023-04-16T00:53:22;50.60;;;27.77;;
18796;SDS011;9526;52.612;13.300;2023-04-16T00:55:46;50.08;;;27.67;;
18796;SDS011;9526;52.612;13.300;2023-04-16T00:58:10;50.28;;;28.67;;
18796;SDS011;9526;52.612;13.300;2023-04-16T01:00:36;49.88;;;28.33;;
18796;SDS011;9526;52.612;13.300;2023-04-16T01:02:59;51.08;;;27.70;;
18796;SDS011;9526;52.612;13.300;2023-04-16T01:05:24;44.75;;;26.83;;
18796;SDS011;9526;52.612;13.300;2023-04-16T01:07:49;50.42;;;27.75;;
18796;SDS011;9526;52.612;13.300;2023-04-16T01:10:13;45.97;;;28.55;;
18796;SDS011;9526;52.612;13.300;2023-04-16T01:12:37;46.28;;;26.58;;
18796;SDS011;9526;52.612;13.300;2023-04-16T01:15:00;45.75;;;25.58;;
18796;SDS011;9526;52.612;13.300;2023-04-16T01:17:26;49.92;;;28.33;;
18796;SDS011;9526;52.612;13.300;2023-04-16T01:19:49;46.22;;;26.73;;
18796;SDS011;9526;52.612;13.300;2023-04-16T01:22:14;51.10;;;26.55;;
18796;SDS011;9526;52.612;13.300;2023-04-16T01:24:38;48.53;;;27.02;;
18796;SDS011;9526;52.612;13.300;2023-04-16T01:27:04;44.90;;;25.23;;
18796;SDS011;9526;52.612;13.300;2023-04-16T01:29:27;48.05;;;27.48;;
18796;SDS011;9526;52.612;13.300;2023-04-16T01:31:52;48.33;;;27.08;;
18796;SDS011;9526;52.612;13.300;2023-04-16T01:34:22;44.88;;;26.08;;
18796;SDS011;9526;52.612;13.300;2023-04-16T01:36:45;49.40;;;25.00;;
18796;SDS011;9526;52.612;13.300;2023-04-16T01:39:10;48.75;;;26.15;;
18796;SDS011;9526;52.612;13.300;2023-04-16T01:41:36;48.42;;;27.35;;
18796;SDS011;9526;52.612;13.300;2023-04-16T01:43:59;48.45;;;26.60;;
18796;SDS011;9526;52.612;13.300;2023-04-16T01:46:25;46.33;;;26.38;;
18796;SDS011;9526;52.612;13.300;2023-04-16T01:48:50;51.80;;;27.25;;
18796;SDS011;9526;52.612;13.300;2023-04-16T01:51:15;48.95;;;27.15;;
18796;SDS011;9526;52.612;13.300;2023-04-16T01:53:38;49.67;;;26.52;;
18796;SDS011;9526;52.612;13.300;2023-04-16T01:56:04;53.13;;;28.88;;
18796;SDS011;9526;52.612;13.300;2023-04-16T01:58:28;55.38;;;28.90;;
18796;SDS011;9526;52.612;13.300;2023-04-16T02:00:54;52.88;;;26.92;;
18796;SDS011;9526;52.612;13.300;2023-04-16T02:03:17;52.78;;;29.65;;
18796;SDS011;9526;52.612;13.300;2023-04-16T02:05:42;56.78;;;29.42;;
18796;SDS011;9526;52.612;13.300;2023-04-16T02:08:05;49.67;;;27.15;;
18796;SDS011;9526;52.612;13.300;2023-04-16T02:10:29;53.58;;;28.70;;
18796;SDS011;9526;52.612;13.300;2023-04-16T02:12:54;58.95;;;28.45;;
18796;SDS011;9526;52.612;13.300;2023-04-16T02:15:18;52.83;;;28.30;;
18796;SDS011;9526;52.612;13.300;2023-04-16T02:17:41;56.10;;;28.90;;
18796;SDS011;9526;52.612;13.300;2023-04-16T02:20:07;58.95;;;27.92;;
18796;SDS011;9526;52.612;13.300;2023-04-16T02:22:39;49.17;;;28.83;;
18796;SDS011;9526;52.612;13.300;2023-04-16T02:25:07;54.78;;;28.88;;
18796;SDS011;9526;52.612;13.300;2023-04-16T02:27:31;52.40;;;29.23;;
18796;SDS011;9526;52.612;13.300;2023-04-16T02:30:09;54.55;;;28.20;;
18796;SDS011;9526;52.612;13.300;2023-04-16T02:32:34;55.90;;;29.33;;
18796;SDS011;9526;52.612;13.300;2023-04-16T02:34:58;51.50;;;28.48;;
18796;SDS011;9526;52.612;13.300;2023-04-16T02:37:24;54.70;;;28.55;;
18796;SDS011;9526;52.612;13.300;2023-04-16T02:39:48;52.40;;;28.55;;
18796;SDS011;9526;52.612;13.300;2023-04-16T02:42:12;56.33;;;28.92;;
18796;SDS011;9526;52.612;13.300;2023-04-16T02:44:36;53.20;;;28.23;;
18796;SDS011;9526;52.612;13.300;2023-04-16T02:47:01;63.08;;;30.10;;
18796;SDS011;9526;52.612;13.300;2023-04-16T02:49:25;56.22;;;30.80;;
18796;SDS011;9526;52.612;13.300;2023-04-16T02:51:49;49.50;;;28.17;;
18796;SDS011;9526;52.612;13.300;2023-04-16T02:54:12;57.40;;;30.23;;
18796;SDS011;9526;52.612;13.300;2023-04-16T02:56:36;57.45;;;28.50;;
18796;SDS011;9526;52.612;13.300;2023-04-16T02:59:00;59.13;;;29.88;;
18796;SDS011;9526;52.612;13.300;2023-04-16T03:01:23;53.30;;;28.88;;
18796;SDS011;9526;52.612;13.300;2023-04-16T03:03:50;62.33;;;30.42;;
18796;SDS011;9526;52.612;13.300;2023-04-16T03:06:14;55.03;;;28.80;;
18796;SDS011;9526;52.612;13.300;2023-04-16T03:08:37;55.85;;;28.88;;
18796;SDS011;9526;52.612;13.300;2023-04-16T03:11:01;50.10;;;28.00;;
18796;SDS011;9526;52.612;13.300;2023-04-16T03:13:24;51.10;;;25.67;;
18796;SDS011;9526;52.612;13.300;2023-04-16T03:15:48;54.35;;;28.30;;
18796;SDS011;9526;52.612;13.300;2023-04-16T03:18:12;49.47;;;27.63;;
18796;SDS011;9526;52.612;13.300;2023-04-16T03:20:37;50.42;;;26.63;;
18796;SDS011;9526;52.612;13.300;2023-04-16T03:23:00;42.50;;;24.75;;
18796;SDS011;9526;52.612;13.300;2023-04-16T03:25:24;50.83;;;25.83;;
18796;SDS011;9526;52.612;13.300;2023-04-16T03:27:48;57.70;;;28.13;;
18796;SDS011;9526;52.612;13.300;2023-04-16T03:30:12;47.70;;;26.52;;
18796;SDS011;9526;52.612;13.300;2023-04-16T03:32:37;61.20;;;32.72;;
18796;SDS011;9526;52.612;13.300;2023-04-16T03:35:01;39.15;;;22.45;;
18796;SDS011;9526;52.612;13.300;2023-04-16T03:37:26;49.88;;;26.90;;
18796;SDS011;9526;52.612;13.300;2023-04-16T03:39:50;49.38;;;26.55;;
18796;SDS011;9526;52.612;13.300;2023-04-16T03:42:13;51.75;;;25.48;;
18796;SDS011;9526;52.612;13.300;2023-04-16T03:44:37;49.70;;;27.90;;
18796;SDS011;9526;52.612;13.300;2023-04-16T03:47:02;53.30;;;27.13;;
18796;SDS011;9526;52.612;13.300;2023-04-16T03:49:26;53.47;;;26.95;;
18796;SDS011;9526;52.612;13.300;2023-04-16T03:51:50;56.85;;;27.85;;
18796;SDS011;9526;52.612;13.300;2023-04-16T03:54:16;56.53;;;28.13;;
18796;SDS011;9526;52.612;13.300;2023-04-16T03:56:47;59.22;;;28.88;;
18796;SDS011;9526;52.612;13.300;2023-04-16T03:59:12;55.75;;;28.88;;
18796;SDS011;9526;52.612;13.300;2023-04-16T04:01:37;59.47;;;29.17;;
18796;SDS011;9526;52.612;13.300;2023-04-16T04:04:01;63.97;;;29.40;;
18796;SDS011;9526;52.612;13.300;2023-04-16T04:06:25;54.88;;;28.73;;
18796;SDS011;9526;52.612;13.300;2023-04-16T04:08:49;49.55;;;26.48;;
18796;SDS011;9526;52.612;13.300;2023-04-16T04:11:14;60.67;;;30.23;;
18796;SDS011;9526;52.612;13.300;2023-04-16T04:13:38;54.03;;;29.08;;
18796;SDS011;9526;52.612;13.300;2023-04-16T04:16:02;65.43;;;29.50;;
18796;SDS011;9526;52.612;13.300;2023-04-16T04:18:27;60.92;;;30.02;;
18796;SDS011;9526;52.612;13.300;2023-04-16T04:20:50;59.22;;;26.98;;
18796;SDS011;9526;52.612;13.300;2023-04-16T04:23:18;61.72;;;29.90;;
18796;SDS011;9526;52.612;13.300;2023-04-16T04:25:41;54.95;;;29.55;;
18796;SDS011;9526;52.612;13.300;2023-04-16T04:28:07;63.55;;;30.17;;
18796;SDS011;9526;52.612;13.300;2023-04-16T04:30:32;61.38;;;29.92;;
18796;SDS011;9526;52.612;13.300;2023-04-16T04:32:56;59.92;;;31.15;;
18796;SDS011;9526;52.612;13.300;2023-04-16T04:35:20;57.33;;;31.02;;
18796;SDS011;9526;52.612;13.300;2023-04-16T04:37:44;64.68;;;29.55;;
18796;SDS011;9526;52.612;13.300;2023-04-16T04:40:12;59.30;;;27.77;;
18796;SDS011;9526;52.612;13.300;2023-04-16T04:42:36;65.90;;;29.40;;
18796;SDS011;9526;52.612;13.300;2023-04-16T04:45:01;54.97;;;29.92;;
18796;SDS011;9526;52.612;13.300;2023-04-16T04:47:26;51.00;;;28.58;;
18796;SDS011;9526;52.612;13.300;2023-04-16T04:49:50;51.53;;;27.67;;
18796;SDS011;9526;52.612;13.300;2023-04-16T04:52:14;61.78;;;28.42;;
18796;SDS011;9526;52.612;13.300;2023-04-16T04:54:37;55.75;;;28.10;;
18796;SDS011;9526;52.612;13.300;2023-04-16T04:57:02;53.78;;;27.30;;
18796;SDS011;9526;52.612;13.300;2023-04-16T04:59:26;54.92;;;27.30;;
18796;SDS011;9526;52.612;13.300;2023-04-16T05:01:51;53.63;;;27.13;;
18796;SDS011;9526;52.612;13.300;2023-04-16T05:04:15;53.72;;;27.33;;
18796;SDS011;9526;52.612;13.300;2023-04-16T05:06:39;54.25;;;27.55;;
18796;SDS011;9526;52.612;13.300;2023-04-16T05:09:02;53.67;;;26.70;;
18796;SDS011;9526;52.612;13.300;2023-04-16T05:11:26;51.53;;;27.05;;
18796;SDS011;9526;52.612;13.300;2023-04-16T05:13:49;54.78;;;27.05;;
18796;SDS011;9526;52.612;13.300;2023-04-16T05:16:13;57.30;;;28.35;;
18796;SDS011;9526;52.612;13.300;2023-04-16T05:18:38;52.78;;;26.70;;
18796;SDS011;9526;52.612;13.300;2023-04-16T05:21:01;55.75;;;27.17;;
18796;SDS011;9526;52.612;13.300;2023-04-16T05:23:26;51.45;;;26.38;;
18796;SDS011;9526;52.612;13.300;2023-04-16T05:25:50;50.50;;;27.02;;
18796;SDS011;9526;52.612;13.300;2023-04-16T05:28:13;52.58;;;25.83;;
18796;SDS011;9526;52.612;13.300;2023-04-16T05:30:37;48.90;;;26.23;;
18796;SDS011;9526;52.612;13.300;2023-04-16T05:33:01;49.10;;;26.30;;
18796;SDS011;9526;52.612;13.300;2023-04-16T05:35:26;45.28;;;25.63;;
18796;SDS011;9526;52.612;13.300;2023-04-16T05:37:49;47.40;;;26.00;;
18796;SDS011;9526;52.612;13.300;2023-04-16T05:40:13;46.25;;;25.52;;
18796;SDS011;9526;52.612;13.300;2023-04-16T05:42:37;48.17;;;25.38;;
18796;SDS011;9526;52.612;13.300;2023-04-16T05:45:01;51.35;;;27.08;;
18796;SDS011;9526;52.612;13.300;2023-04-16T05:47:25;54.38;;;27.40;;
18796;SDS011;9526;52.612;13.300;2023-04-16T05:49:49;53.60;;;27.75;;
18796;SDS011;9526;52.612;13.300;2023-04-16T05:52:14;60.95;;;28.17;;
18796;SDS011;9526;52.612;13.300;2023-04-16T05:54:37;47.80;;;26.63;;
18796;SDS011;9526;52.612;13.300;2023-04-16T05:57:01;51.55;;;26.00;;
18796;SDS011;9526;52.612;13.300;2023-04-16T05:59:25;53.50;;;28.05;;
18796;SDS011;9526;52.612;13.300;2023-04-16T06:01:49;51.67;;;26.98;;
18796;SDS011;9526;52.612;13.300;2023-04-16T06:04:13;49.92;;;27.08;;
18796;SDS011;9526;52.612;13.300;2023-04-16T06:06:37;51.05;;;27.33;;
18796;SDS011;9526;52.612;13.300;2023-04-16T06:09:02;53.33;;;27.20;;
18796;SDS011;9526;52.612;13.300;2023-04-16T06:11:26;49.90;;;26.92;;
18796;SDS011;9526;52.612;13.300;2023-04-16T06:13:51;50.45;;;25.98;;
18796;SDS011;9526;52.612;13.300;2023-04-16T06:16:14;54.03;;;26.15;;
18796;SDS011;9526;52.612;13.300;2023-04-16T06:18:38;52.42;;;26.73;;
18796;SDS011;9526;52.612;13.300;2023-04-16T06:21:02;51.50;;;26.95;;
18796;SDS011;9526;52.612;13.300;2023-04-16T06:23:26;47.13;;;26.17;;
18796;SDS011;9526;52.612;13.300;2023-04-16T06:25:51;50.15;;;26.88;;
18796;SDS011;9526;52.612;13.300;2023-04-16T06:28:15;47.22;;;26.33;;
18796;SDS011;9526;52.612;13.300;2023-04-16T06:30:38;51.88;;;27.65;;
18796;SDS011;9526;52.612;13.300;2023-04-16T06:33:05;46.33;;;26.80;;
18796;SDS011;9526;52.612;13.300;2023-04-16T06:35:28;51.55;;;26.67;;
18796;SDS011;9526;52.612;13.300;2023-04-16T06:37:52;50.47;;;27.60;;
18796;SDS011;9526;52.612;13.300;2023-04-16T06:40:16;50.40;;;28.42;;
18796;SDS011;9526;52.612;13.300;2023-04-16T06:42:41;51.22;;;28.15;;
18796;SDS011;9526;52.612;13.300;2023-04-16T06:45:06;51.00;;;25.23;;
18796;SDS011;9526;52.612;13.300;2023-04-16T06:47:31;45.28;;;25.77;;
18796;SDS011;9526;52.612;13.300;2023-04-16T06:49:55;45.38;;;25.42;;
18796;SDS011;9526;52.612;13.300;2023-04-16T06:52:18;43.28;;;24.13;;
18796;SDS011;9526;52.612;13.300;2023-04-16T06:54:42;50.85;;;27.13;;
18796;SDS011;9526;52.612;13.300;2023-04-16T06:57:05;49.28;;;25.85;;
18796;SDS011;9526;52.612;13.300;2023-04-16T06:59:30;52.13;;;25.60;;
18796;SDS011;9526;52.612;13.300;2023-04-16T07:01:54;44.60;;;24.83;;
18796;SDS011;9526;52.612;13.300;2023-04-16T07:04:19;47.92;;;25.60;;
18796;SDS011;9526;52.612;13.300;2023-04-16T07:06:42;50.65;;;25.75;;
18796;SDS011;9526;52.612;13.300;2023-04-16T07:09:06;49.30;;;25.90;;
18796;SDS011;9526;52.612;13.300;2023-04-16T07:11:30;48.15;;;24.42;;
18796;SDS011;9526;52.612;13.300;2023-04-16T07:13:54;55.55;;;27.55;;
18796;SDS011;9526;52.612;13.300;2023-04-16T07:16:19;57.47;;;27.40;;
18796;SDS011;9526;52.612;13.300;2023-04-16T07:18:43;48.35;;;26.52;;
18796;SDS011;9526;52.612;13.300;2023-04-16T07:21:06;54.22;;;25.52;;
18796;SDS011;9526;52.612;13.300;2023-04-16T07:23:30;48.80;;;25.27;;
18796;SDS011;9526;52.612;13.300;2023-04-16T07:25:54;48.20;;;25.30;;
18796;SDS011;9526;52.612;13.300;2023-04-16T07:28:17;48.17;;;25.58;;
18796;SDS011;9526;52.612;13.300;2023-04-16T07:30:41;48.08;;;26.42;;
18796;SDS011;9526;52.612;13.300;2023-04-16T07:33:06;47.72;;;24.67;;
18796;SDS011;9526;52.612;13.300;2023-04-16T07:35:30;50.33;;;24.52;;
18796;SDS011;9526;52.612;13.300;2023-04-16T07:37:54;47.88;;;24.65;;
18796;SDS011;9526;52.612;13.300;2023-04-16T07:40:18;47.22;;;24.98;;
18796;SDS011;9526;52.612;13.300;2023-04-16T07:42:41;44.97;;;22.98;;
18796;SDS011;9526;52.612;13.300;2023-04-16T07:45:05;48.83;;;25.00;;
18796;SDS011;9526;52.612;13.300;2023-04-16T07:47:30;49.08;;;25.08;;
18796;SDS011;9526;52.612;13.300;2023-04-16T07:49:55;49.17;;;24.45;;
18796;SDS011;9526;52.612;13.300;2023-04-16T07:52:19;47.25;;;23.77;;
18796;SDS011;9526;52.612;13.300;2023-04-16T07:54:43;48.60;;;24.67;;
18796;SDS011;9526;52.612;13.300;2023-04-16T07:57:07;47.90;;;25.38;;
18796;SDS011;9526;52.612;13.300;2023-04-16T07:59:32;48.53;;;24.60;;
18796;SDS011;9526;52.612;13.300;2023-04-16T08:01:55;48.47;;;26.08;;
18796;SDS011;9526;52.612;13.300;2023-04-16T08:04:19;47.17;;;26.02;;
18796;SDS011;9526;52.612;13.300;2023-04-16T08:06:47;47.03;;;24.70;;
18796;SDS011;9526;52.612;13.300;2023-04-16T08:09:10;45.70;;;23.92;;
18796;SDS011;9526;52.612;13.300;2023-04-16T08:11:34;43.55;;;23.85;;
18796;SDS011;9526;52.612;13.300;2023-04-16T08:13:58;39.28;;;23.33;;
18796;SDS011;9526;52.612;13.300;2023-04-16T08:16:21;40.00;;;22.20;;
18796;SDS011;9526;52.612;13.300;2023-04-16T08:18:45;42.28;;;22.23;;
18796;SDS011;9526;52.612;13.300;2023-04-16T08:21:09;40.88;;;23.50;;
18796;SDS011;9526;52.612;13.300;2023-04-16T08:23:34;38.42;;;21.80;;
18796;SDS011;9526;52.612;13.300;2023-04-16T08:25:58;41.58;;;22.15;;
18796;SDS011;9526;52.612;13.300;2023-04-16T08:28:23;33.83;;;21.17;;
18796;SDS011;9526;52.612;13.300;2023-04-16T08:30:46;34.28;;;19.77;;
18796;SDS011;9526;52.612;13.300;2023-04-16T08:33:10;36.13;;;21.52;;
18796;SDS011;9526;52.612;13.300;2023-04-16T08:35:34;34.03;;;20.17;;
18796;SDS011;9526;52.612;13.300;2023-04-16T08:37:58;31.75;;;20.02;;
18796;SDS011;9526;52.612;13.300;2023-04-16T08:40:24;35.92;;;21.55;;
18796;SDS011;9526;52.612;13.300;2023-04-16T08:42:52;29.70;;;18.80;;
18796;SDS011;9526;52.612;13.300;2023-04-16T08:45:17;28.67;;;17.88;;
18796;SDS011;9526;52.612;13.300;2023-04-16T08:47:42;31.10;;;18.83;;
18796;SDS011;9526;52.612;13.300;2023-04-16T08:50:09;30.98;;;19.20;;
18796;SDS011;9526;52.612;13.300;2023-04-16T08:52:36;32.28;;;18.85;;
18796;SDS011;9526;52.612;13.300;2023-04-16T08:55:08;29.05;;;18.58;;
18796;SDS011;9526;52.612;13.300;2023-04-16T08:57:37;36.13;;;19.13;;
18796;SDS011;9526;52.612;13.300;2023-04-16T09:00:07;31.40;;;19.02;;
18796;SDS011;9526;52.612;13.300;2023-04-16T09:02:31;27.50;;;18.05;;
18796;SDS011;9526;52.612;13.300;2023-04-16T09:04:56;27.02;;;17.58;;
18796;SDS011;9526;52.612;13.300;2023-04-16T09:07:21;30.17;;;18.88;;
18796;SDS011;9526;52.612;13.300;2023-04-16T09:09:47;29.23;;;18.27;;
18796;SDS011;9526;52.612;13.300;2023-04-16T09:12:13;29.88;;;20.10;;
18796;SDS011;9526;52.612;13.300;2023-04-16T09:14:38;32.88;;;19.23;;
18796;SDS011;9526;52.612;13.300;2023-04-16T09:17:03;30.88;;;19.75;;
18796;SDS011;9526;52.612;13.300;2023-04-16T09:19:28;29.95;;;19.83;;
18796;SDS011;9526;52.612;13.300;2023-04-16T09:21:52;34.20;;;21.45;;
18796;SDS011;9526;52.612;13.300;2023-04-16T09:24:16;32.88;;;21.50;;
18796;SDS011;9526;52.612;13.300;2023-04-16T09:26:40;38.40;;;21.08;;
18796;SDS011;9526;52.612;13.300;2023-04-16T09:29:05;39.53;;;22.10;;
18796;SDS011;9526;52.612;13.300;2023-04-16T09:31:31;36.72;;;20.88;;
18796;SDS011;9526;52.612;13.300;2023-04-16T09:34:02;34.22;;;20.60;;
18796;SDS011;9526;52.612;13.300;2023-04-16T09:36:28;35.50;;;20.65;;
18796;SDS011;9526;52.612;13.300;2023-04-16T09:38:53;38.20;;;21.20;;
18796;SDS011;9526;52.612;13.300;2023-04-16T09:41:18;37.03;;;21.55;;
18796;SDS011;9526;52.612;13.300;2023-04-16T09:43:53;37.88;;;21.88;;
18796;SDS011;9526;52.612;13.300;2023-04-16T09:46:18;35.15;;;21.70;;
18796;SDS011;9526;52.612;13.300;2023-04-16T09:48:43;36.30;;;22.58;;
18796;SDS011;9526;52.612;13.300;2023-04-16T09:51:08;39.70;;;22.80;;
18796;SDS011;9526;52.612;13.300;2023-04-16T09:53:32;34.45;;;22.17;;
18796;SDS011;9526;52.612;13.300;2023-04-16T09:55:55;35.28;;;21.70;;
18796;SDS011;9526;52.612;13.300;2023-04-16T09:58:19;35.35;;;22.83;;
18796;SDS011;9526;52.612;13.300;2023-04-16T10:00:43;38.55;;;22.25;;
18796;SDS011;9526;52.612;13.300;2023-04-16T10:03:07;34.78;;;20.95;;
18796;SDS011;9526;52.612;13.300;2023-04-16T10:05:32;30.35;;;20.80;;
18796;SDS011;9526;52.612;13.300;2023-04-16T10:07:58;31.33;;;20.25;;
18796;SDS011;9526;52.612;13.300;2023-04-16T10:10:22;33.47;;;20.00;;
18796;SDS011;9526;52.612;13.300;2023-04-16T10:12:46;29.92;;;20.17;;
18796;SDS011;9526;52.612;13.300;2023-04-16T10:15:10;32.85;;;20.05;;
18796;SDS011;9526;52.612;13.300;2023-04-16T10:17:33;30.73;;;19.92;;
18796;SDS011;9526;52.612;13.300;2023-04-16T10:19:58;31.20;;;20.60;;
18796;SDS011;9526;52.612;13.300;2023-04-16T10:22:25;30.15;;;18.50;;
18796;SDS011;9526;52.612;13.300;2023-04-16T10:24:48;27.88;;;18.65;;
18796;SDS011;9526;52.612;13.300;2023-04-16T10:27:12;26.52;;;18.60;;
18796;SDS011;9526;52.612;13.300;2023-04-16T10:29:37;25.88;;;18.10;;
18796;SDS011;9526;52.612;13.300;2023-04-16T10:32:01;24.13;;;18.25;;
18796;SDS011;9526;52.612;13.300;2023-04-16T10:34:26;27.35;;;19.02;;
18796;SDS011;9526;52.612;13.300;2023-04-16T10:36:51;26.27;;;18.33;;
18796;SDS011;9526;52.612;13.300;2023-04-16T10:39:18;25.13;;;18.40;;
18796;SDS011;9526;52.612;13.300;2023-04-16T10:41:43;26.25;;;18.13;;
18796;SDS011;9526;52.612;13.300;2023-04-16T10:44:08;27.00;;;18.40;;
18796;SDS011;9526;52.612;13.300;2023-04-16T10:46:33;24.13;;;17.13;;
18796;SDS011;9526;52.612;13.300;2023-04-16T10:49:02;27.40;;;18.02;;
18796;SDS011;9526;52.612;13.300;2023-04-16T10:51:35;25.15;;;16.15;;
18796;SDS011;9526;52.612;13.300;2023-04-16T10:54:01;25.55;;;16.30;;
18796;SDS011;9526;52.612;13.300;2023-04-16T10:56:43;21.05;;;15.63;;
18796;SDS011;9526;52.612;13.300;2023-04-16T10:59:08;20.02;;;15.35;;
18796;SDS011;9526;52.612;13.300;2023-04-16T11:01:33;20.10;;;14.05;;
18796;SDS011;9526;52.612;13.300;2023-04-16T11:03:59;20.20;;;15.05;;
18796;SDS011;9526;52.612;13.300;2023-04-16T11:06:24;20.45;;;15.15;;
18796;SDS011;9526;52.612;13.300;2023-04-16T11:08:50;20.38;;;14.63;;
18796;SDS011;9526;52.612;13.300;2023-04-16T11:11:16;22.48;;;14.85;;
18796;SDS011;9526;52.612;13.300;2023-04-16T11:13:43;21.10;;;14.60;;
18796;SDS011;9526;52.612;13.300;2023-04-16T11:16:07;19.08;;;14.52;;
18796;SDS011;9526;52.612;13.300;2023-04-16T11:18:31;19.02;;;14.70;;
18796;SDS011;9526;52.612;13.300;2023-04-16T11:21:01;21.75;;;14.07;;
18796;SDS011;9526;52.612;13.300;2023-04-16T11:23:40;19.88;;;14.90;;
18796;SDS011;9526;52.612;13.300;2023-04-16T11:26:18;19.65;;;14.65;;
18796;SDS011;9526;52.612;13.300;2023-04-16T11:28:47;18.38;;;14.10;;
18796;SDS011;9526;52.612;13.300;2023-04-16T11:31:12;22.58;;;14.48;;
18796;SDS011;9526;52.612;13.300;2023-04-16T11:33:36;20.50;;;14.68;;
18796;SDS011;9526;52.612;13.300;2023-04-16T11:36:00;18.38;;;13.93;;
18796;SDS011;9526;52.612;13.300;2023-04-16T11:38:31;25.15;;;15.48;;
18796;SDS011;9526;52.612;13.300;2023-04-16T11:40:56;20.40;;;14.82;;
18796;SDS011;9526;52.612;13.300;2023-04-16T11:43:20;19.05;;;14.35;;
18796;SDS011;9526;52.612;13.300;2023-04-16T11:45:55;20.45;;;13.55;;
18796;SDS011;9526;52.612;13.300;2023-04-16T11:48:19;17.75;;;13.30;;
18796;SDS011;9526;52.612;13.300;2023-04-16T11:50:43;20.95;;;14.15;;
18796;SDS011;9526;52.612;13.300;2023-04-16T11:53:17;17.65;;;12.95;;
18796;SDS011;9526;52.612;13.300;2023-04-16T11:55:41;17.15;;;13.07;;
18796;SDS011;9526;52.612;13.300;2023-04-16T11:58:10;19.42;;;13.43;;
18796;SDS011;9526;52.612;13.300;2023-04-16T12:00:36;18.13;;;13.43;;
18796;SDS011;9526;52.612;13.300;2023-04-16T12:03:01;18.20;;;13.13;;
18796;SDS011;9526;52.612;13.300;2023-04-16T12:05:26;16.60;;;12.73;;
18796;SDS011;9526;52.612;13.300;2023-04-16T12:07:52;15.23;;;11.77;;
18796;SDS011;9526;52.612;13.300;2023-04-16T12:10:16;16.35;;;12.38;;
18796;SDS011;9526;52.612;13.300;2023-04-16T12:12:40;16.75;;;12.75;;
18796;SDS011;9526;52.612;13.300;2023-04-16T12:15:04;15.88;;;12.88;;
18796;SDS011;9526;52.612;13.300;2023-04-16T12:17:29;17.42;;;12.57;;
18796;SDS011;9526;52.612;13.300;2023-04-16T12:19:55;19.00;;;12.15;;
18796;SDS011;9526;52.612;13.300;2023-04-16T12:22:25;17.17;;;12.50;;
18796;SDS011;9526;52.612;13.300;2023-04-16T12:24:57;17.15;;;11.63;;
18796;SDS011;9526;52.612;13.300;2023-04-16T12:27:21;16.40;;;11.10;;
18796;SDS011;9526;52.612;13.300;2023-04-16T12:30:01;14.60;;;10.65;;
18796;SDS011;9526;52.612;13.300;2023-04-16T12:32:27;16.08;;;11.45;;
18796;SDS011;9526;52.612;13.300;2023-04-16T12:34:51;16.23;;;11.32;;
18796;SDS011;9526;52.612;13.300;2023-04-16T12:37:16;15.98;;;11.32;;
18796;SDS011;9526;52.612;13.300;2023-04-16T12:39:39;13.60;;;11.13;;
18796;SDS011;9526;52.612;13.300;2023-04-16T12:42:03;14.32;;;10.55;;
18796;SDS011;9526;52.612;13.300;2023-04-16T12:44:30;15.80;;;11.68;;
18796;SDS011;9526;52.612;13.300;2023-04-16T12:46:53;15.80;;;11.10;;
18796;SDS011;9526;52.612;13.300;2023-04-16T12:49:17;14.80;;;11.13;;
18796;SDS011;9526;52.612;13.300;2023-04-16T12:51:41;14.93;;;10.90;;
18796;SDS011;9526;52.612;13.300;2023-04-16T12:54:06;15.68;;;11.13;;
18796;SDS011;9526;52.612;13.300;2023-04-16T12:56:30;13.23;;;10.68;;
18796;SDS011;9526;52.612;13.300;2023-04-16T12:58:54;15.43;;;11.23;;
18796;SDS011;9526;52.612;13.300;2023-04-16T13:01:18;16.70;;;11.18;;
18796;SDS011;9526;52.612;13.300;2023-04-16T13:03:42;16.55;;;11.73;;
18796;SDS011;9526;52.612;13.300;2023-04-16T13:06:06;17.63;;;11.35;;
18796;SDS011;9526;52.612;13.300;2023-04-16T13:08:30;14.95;;;11.38;;
18796;SDS011;9526;52.612;13.300;2023-04-16T13:10:55;14.55;;;11.32;;
18796;SDS011;9526;52.612;13.300;2023-04-16T13:13:18;13.93;;;10.60;;
18796;SDS011;9526;52.612;13.300;2023-04-16T13:15:42;13.77;;;10.30;;
18796;SDS011;9526;52.612;13.300;2023-04-16T13:18:06;13.95;;;10.30;;
18796;SDS011;9526;52.612;13.300;2023-04-16T13:20:29;16.83;;;11.43;;
18796;SDS011;9526;52.612;13.300;2023-04-16T13:22:54;13.60;;;10.35;;
18796;SDS011;9526;52.612;13.300;2023-04-16T13:25:18;12.30;;;9.82;;
18796;SDS011;9526;52.612;13.300;2023-04-16T13:27:43;15.13;;;10.60;;
18796;SDS011;9526;52.612;13.300;2023-04-16T13:30:07;13.05;;;10.02;;
18796;SDS011;9526;52.612;13.300;2023-04-16T13:32:32;14.77;;;9.90;;
18796;SDS011;9526;52.612;13.300;2023-04-16T13:34:55;15.98;;;9.70;;
18796;SDS011;9526;52.612;13.300;2023-04-16T13:37:19;14.63;;;9.73;;
18796;SDS011;9526;52.612;13.300;2023-04-16T13:39:43;15.00;;;9.98;;
18796;SDS011;9526;52.612;13.300;2023-04-16T13:42:06;12.65;;;9.70;;
18796;SDS011;9526;52.612;13.300;2023-04-16T13:44:31;15.38;;;10.38;;
18796;SDS011;9526;52.612;13.300;2023-04-16T13:46:55;11.32;;;9.93;;
18796;SDS011;9526;52.612;13.300;2023-04-16T13:49:19;12.27;;;9.85;;
18796;SDS011;9526;52.612;13.300;2023-04-16T13:51:43;13.88;;;10.38;;
18796;SDS011;9526;52.612;13.300;2023-04-16T13:54:06;11.38;;;8.95;;
18796;SDS011;9526;52.612;13.300;2023-04-16T13:56:30;10.93;;;8.63;;
18796;SDS011;9526;52.612;13.300;2023-04-16T13:58:53;11.60;;;9.18;;
18796;SDS011;9526;52.612;13.300;2023-04-16T14:01:18;12.52;;;8.82;;
18796;SDS011;9526;52.612;13.300;2023-04-16T14:03:42;11.02;;;8.30;;
18796;SDS011;9526;52.612;13.300;2023-04-16T14:06:06;13.35;;;8.10;;